Time;durP1;ratioP1;P1;durP2;ratioP2;P2;SDS_P1;SDS_P2;PMS_P1;PMS_P2;Temp;Humidity;BMP_temperature;BMP_pressure;BME280_temperature;BME280_humidity;BME280_pressure;Samples;Min_cycle;Max_cycle;Signal;HPM_P1;HPM_P2
2022/04/06 00:00:09;;;;;;;3.53;1.13;;;19.00;47.50;;;;;;5092076;28;20482;-67
2022/04/06 00:02:39;;;;;;;3.05;0.77;;;18.90;47.50;;;;;;5090978;28;20057;-73
2022/04/06 00:05:09;;;;;;;3.75;1.00;;;19.00;47.60;;;;;;5091956;28;20055;-72
2022/04/06 00:07:35;;;;;;;4.18;1.60;;;18.90;47.50;;;;;;5126353;27;20036;-71
2022/04/06 00:10:01;;;;;;;4.20;1.13;;;18.90;47.50;;;;;;5091721;28;20062;-71
2022/04/06 00:12:26;;;;;;;3.08;0.77;;;19.00;47.60;;;;;;5091653;28;20044;-72
2022/04/06 00:14:52;;;;;;;6.03;0.90;;;18.90;47.60;;;;;;5091548;28;20063;-72
2022/04/06 00:17:18;;;;;;;2.53;0.80;;;18.90;47.60;;;;;;5091181;28;20051;-72
2022/04/06 00:19:43;;;;;;;2.83;0.75;;;18.90;47.60;;;;;;5091712;28;20032;-71
2022/04/06 00:22:09;;;;;;;3.97;0.77;;;18.90;47.60;;;;;;5091446;28;20051;-71
2022/04/06 00:24:35;;;;;;;3.20;0.65;;;18.90;47.60;;;;;;5091554;28;20039;-73
2022/04/06 00:27:01;;;;;;;3.47;0.88;;;18.90;47.60;;;;;;5091639;28;20476;-71
2022/04/06 00:29:27;;;;;;;3.50;0.90;;;18.90;48.40;;;;;;5091500;28;20039;-73
2022/04/06 00:31:52;;;;;;;3.63;1.17;;;18.90;47.60;;;;;;5091876;28;20452;-72
2022/04/06 00:34:18;;;;;;;4.95;1.45;;;18.90;47.60;;;;;;5091201;28;20500;-72
2022/04/06 00:36:44;;;;;;;4.22;1.10;;;18.80;47.60;;;;;;5091186;28;20044;-72
2022/04/06 00:39:13;;;;;;;4.35;1.10;;;18.80;47.60;;;;;;5125513;27;20172;-72
2022/04/06 00:41:39;;;;;;;3.30;0.80;;;18.80;47.60;;;;;;5125266;27;20075;-72
2022/04/06 00:44:16;;;;;;;2.38;0.93;;;18.80;47.60;;;;;;5092296;28;20072;-72
2022/04/06 00:46:44;;;;;;;4.75;1.08;;;18.80;47.70;;;;;;5092595;28;20068;-72
2022/04/06 00:49:14;;;;;;;3.83;1.20;;;18.70;47.60;;;;;;5092292;28;20483;-70
2022/04/06 00:51:42;;;;;;;4.32;1.20;;;18.80;47.70;;;;;;5125096;27;20039;-71
2022/04/06 00:54:08;;;;;;;3.53;0.80;;;18.70;47.60;;;;;;5090958;28;20040;-73
2022/04/06 00:56:35;;;;;;;3.97;1.15;;;18.70;47.60;;;;;;5092287;28;20036;-72
2022/04/06 00:59:02;;;;;;;2.22;0.70;;;18.70;47.70;;;;;;5090663;28;20063;-70
2022/04/06 01:01:28;;;;;;;6.90;1.13;;;18.70;47.70;;;;;;5092331;28;20399;-72
2022/04/06 01:03:53;;;;;;;3.90;0.80;;;18.70;47.70;;;;;;5090836;28;20040;-73
2022/04/06 01:06:20;;;;;;;3.88;1.05;;;18.70;47.70;;;;;;5090465;28;20036;-71
2022/04/06 01:08:46;;;;;;;2.60;1.17;;;18.70;47.70;;;;;;5124954;27;20039;-72
2022/04/06 01:11:12;;;;;;;4.82;1.33;;;18.70;47.70;;;;;;5124843;27;20044;-67
2022/04/06 01:13:38;;;;;;;4.28;1.10;;;18.60;47.70;;;;;;5090967;28;20045;-70
2022/04/06 01:16:04;;;;;;;4.97;1.13;;;18.60;48.40;;;;;;5090913;28;20079;-72
2022/04/06 01:18:32;;;;;;;3.25;0.90;;;18.60;47.70;;;;;;5091763;28;20464;-72
2022/04/06 01:20:58;;;;;;;3.40;1.13;;;18.60;47.70;;;;;;5092252;28;20036;-71
2022/04/06 01:23:24;;;;;;;4.40;0.98;;;18.60;47.70;;;;;;5090987;28;20035;-71
2022/04/06 01:25:50;;;;;;;4.78;0.95;;;18.60;47.60;;;;;;5073670;28;20059;-71
2022/04/06 01:28:16;;;;;;;3.38;1.00;;;18.60;48.50;;;;;;5124953;28;20040;-69
2022/04/06 01:30:42;;;;;;;5.53;1.05;;;18.60;47.70;;;;;;5124659;28;20056;-74
2022/04/06 01:33:08;;;;;;;5.60;1.35;;;18.50;47.70;;;;;;5090788;28;20040;-70
2022/04/06 01:35:38;;;;;;;2.83;1.00;;;18.50;47.70;;;;;;5124851;28;20395;-71
2022/04/06 01:38:04;;;;;;;3.28;1.42;;;18.50;47.70;;;;;;5090473;28;20047;-72
2022/04/06 01:40:30;;;;;;;5.07;1.38;;;18.50;47.70;;;;;;5090821;28;20044;-67
2022/04/06 01:42:56;;;;;;;3.53;0.90;;;18.50;48.40;;;;;;5090623;28;20483;-73
2022/04/06 01:45:22;;;;;;;4.43;0.93;;;18.50;47.70;;;;;;5090485;28;20483;-71
2022/04/06 01:47:48;;;;;;;4.32;1.45;;;18.50;47.70;;;;;;5091823;28;20042;-72
2022/04/06 01:53:03;;;;;;;4.00;1.23;;;18.50;47.80;;;;;;5090393;28;20044;-71
2022/04/06 01:55:29;;;;;;;3.17;1.20;;;18.40;47.70;;;;;;5090359;28;20036;-71
2022/04/06 01:58:01;;;;;;;1.67;0.70;;;18.40;47.80;;;;;;5090372;28;20458;-71
2022/04/06 02:00:27;;;;;;;3.15;1.25;;;18.40;47.80;;;;;;5090301;28;20036;-67
2022/04/06 02:02:53;;;;;;;3.90;1.08;;;18.40;47.70;;;;;;5124577;28;20046;-71
2022/04/06 02:05:20;;;;;;;5.20;0.98;;;18.40;47.80;;;;;;5091498;28;20040;-71
2022/04/06 02:07:46;;;;;;;2.65;0.70;;;18.40;47.70;;;;;;5090217;28;20127;-72
2022/04/06 02:10:13;;;;;;;2.83;0.75;;;18.40;47.70;;;;;;5124338;28;20089;-72
2022/04/06 02:12:40;;;;;;;2.85;1.00;;;18.40;47.70;;;;;;5090137;28;20134;-73
2022/04/06 02:15:10;;;;;;;5.05;1.48;;;18.40;47.70;;;;;;5090205;28;20047;-73
2022/04/06 02:17:36;;;;;;;4.32;1.08;;;18.40;47.70;;;;;;5089592;28;20067;-72
2022/04/06 02:20:02;;;;;;;4.38;0.77;;;18.40;47.60;;;;;;5090117;28;20115;-70
2022/04/06 02:22:27;;;;;;;2.80;0.52;;;18.40;47.80;;;;;;5090346;28;20032;-72
2022/04/06 02:24:53;;;;;;;4.15;0.70;;;18.50;47.70;;;;;;5091330;28;20537;-73
2022/04/06 02:27:19;;;;;;;2.75;0.60;;;18.60;47.50;;;;;;5093934;28;20055;-72
2022/04/06 02:29:44;;;;;;;3.30;0.70;;;18.80;47.30;;;;;;5093740;28;20044;-72
2022/04/06 02:32:11;;;;;;;2.30;0.40;;;19.00;47.00;;;;;;5093685;28;20084;-71
2022/04/06 02:34:37;;;;;;;5.50;0.95;;;19.30;46.60;;;;;;5093803;28;20051;-71
2022/04/06 02:37:03;;;;;;;3.40;0.65;;;19.60;46.00;;;;;;5093649;28;20133;-73
2022/04/06 02:39:29;;;;;;;3.00;0.77;;;19.90;45.50;;;;;;5093700;28;20090;-71
2022/04/06 02:41:54;;;;;;;2.90;0.60;;;20.20;45.00;;;;;;5093861;28;20051;-71
2022/04/06 02:44:20;;;;;;;3.42;0.43;;;20.50;44.40;;;;;;5093912;28;20047;-73
2022/04/06 02:46:47;;;;;;;2.90;0.57;;;20.70;44.00;;;;;;5094820;28;20533;-73
2022/04/06 02:49:14;;;;;;;1.95;0.63;;;20.90;43.60;;;;;;5093240;28;20048;-72
2022/04/06 02:51:40;;;;;;;3.08;0.63;;;21.10;43.10;;;;;;5094496;28;20055;-72
2022/04/06 02:54:06;;;;;;;2.33;0.63;;;21.40;42.70;;;;;;5093432;28;20115;-72
2022/04/06 02:56:31;;;;;;;2.08;0.75;;;21.60;42.30;;;;;;5127551;27;20067;-68
2022/04/06 02:58:57;;;;;;;3.15;0.60;;;21.80;41.90;;;;;;5092371;28;20063;-71
2022/04/06 03:01:23;;;;;;;2.67;0.50;;;22.00;41.60;;;;;;5093422;28;20043;-73
2022/04/06 03:03:49;;;;;;;2.75;0.65;;;22.10;41.20;;;;;;5093157;28;20040;-72
2022/04/06 03:06:15;;;;;;;3.55;0.60;;;22.30;40.90;;;;;;5093035;28;20075;-72
2022/04/06 03:08:40;;;;;;;1.73;0.50;;;22.40;40.60;;;;;;5127325;27;20071;-72
2022/04/06 03:11:06;;;;;;;2.58;0.63;;;22.50;40.40;;;;;;5076195;28;20048;-72
2022/04/06 03:13:32;;;;;;;2.03;0.38;;;22.70;40.20;;;;;;5093153;28;20055;-73
2022/04/06 03:15:58;;;;;;;2.35;0.50;;;22.80;39.90;;;;;;5093772;28;20052;-75
2022/04/06 03:18:24;;;;;;;2.45;0.45;;;22.90;39.70;;;;;;5126980;27;20055;-72
2022/04/06 03:20:52;;;;;;;2.72;0.65;;;23.00;39.50;;;;;;5094172;28;20032;-73
2022/04/06 03:23:19;;;;;;;2.85;0.70;;;23.00;39.30;;;;;;5093089;28;20126;-71
2022/04/06 03:25:45;;;;;;;2.35;0.70;;;23.10;39.20;;;;;;5093859;28;20044;-72
2022/04/06 03:28:11;;;;;;;3.88;0.93;;;23.10;39.10;;;;;;5092482;28;20036;-67
2022/04/06 03:30:36;;;;;;;4.88;0.95;;;23.10;39.00;;;;;;5092339;28;20047;-72
2022/04/06 03:33:02;;;;;;;2.08;0.57;;;23.10;38.90;;;;;;5093698;28;20036;-71
2022/04/06 03:35:29;;;;;;;2.03;0.43;;;23.10;38.90;;;;;;5092330;28;20040;-71
2022/04/06 03:37:54;;;;;;;3.28;0.40;;;23.10;38.80;;;;;;5093615;28;20255;-73
2022/04/06 03:40:20;;;;;;;2.78;0.70;;;23.10;38.70;;;;;;5093545;28;20087;-72
2022/04/06 03:42:46;;;;;;;4.80;0.60;;;23.10;38.70;;;;;;5092001;28;20430;-72
2022/04/06 03:45:12;;;;;;;2.70;0.50;;;23.20;38.60;;;;;;5126297;27;20043;-72
2022/04/06 03:47:40;;;;;;;1.90;0.50;;;23.20;38.60;;;;;;5092487;28;20097;-73
2022/04/06 03:50:07;;;;;;;2.38;0.40;;;23.20;38.50;;;;;;5075335;28;20043;-72
2022/04/06 03:52:33;;;;;;;5.07;1.15;;;23.20;38.50;;;;;;5092173;28;20055;-67
2022/04/06 03:54:59;;;;;;;1.73;0.47;;;23.20;38.50;;;;;;5091976;28;20089;-71
2022/04/06 03:57:27;;;;;;;1.35;0.30;;;23.10;38.40;;;;;;5091857;28;20040;-72
2022/04/06 03:59:53;;;;;;;2.05;0.50;;;23.10;38.50;;;;;;5091904;28;20067;-72
2022/04/06 04:02:19;;;;;;;3.50;0.95;;;23.20;38.30;;;;;;5091834;28;20040;-72
2022/04/06 04:04:44;;;;;;;3.83;0.70;;;23.30;38.20;;;;;;5091707;28;20044;-72
2022/04/06 04:07:10;;;;;;;3.08;0.50;;;23.40;37.90;;;;;;5091893;28;20040;-71
2022/04/06 04:09:36;;;;;;;4.57;0.75;;;23.50;37.60;;;;;;5091760;28;20128;-72
2022/04/06 04:12:06;;;;;;;3.20;0.65;;;23.70;37.50;;;;;;5125757;27;20093;-73
2022/04/06 04:14:34;;;;;;;1.73;0.40;;;23.70;37.20;;;;;;5091987;28;20119;-71
2022/04/06 04:17:01;;;;;;;3.22;0.68;;;23.90;37.10;;;;;;5091229;28;20084;-71
2022/04/06 04:19:26;;;;;;;2.65;0.43;;;23.90;36.90;;;;;;5125740;27;20093;-72
2022/04/06 04:21:52;;;;;;;2.80;0.50;;;24.00;36.80;;;;;;5091554;28;20036;-72
2022/04/06 04:24:18;;;;;;;3.28;0.40;;;24.10;36.60;;;;;;5091551;28;20036;-71
2022/04/06 04:26:43;;;;;;;2.17;0.55;;;24.10;36.40;;;;;;5091314;28;20063;-71
2022/04/06 04:29:09;;;;;;;2.60;0.50;;;24.20;36.40;;;;;;5091457;28;20046;-72
2022/04/06 04:31:35;;;;;;;2.38;0.40;;;24.20;36.30;;;;;;5091167;28;20046;-72
2022/04/06 04:34:01;;;;;;;2.95;0.60;;;24.20;36.20;;;;;;5092778;28;20077;-72
2022/04/06 04:36:28;;;;;;;2.05;0.40;;;24.20;36.20;;;;;;5091526;28;20111;-73
2022/04/06 04:38:57;;;;;;;2.75;0.50;;;24.20;36.20;;;;;;5091133;28;20036;-67
2022/04/06 04:41:23;;;;;;;3.20;0.50;;;24.20;36.20;;;;;;5091440;28;20044;-72
2022/04/06 04:43:50;;;;;;;2.95;0.47;;;24.10;36.30;;;;;;5125554;27;20100;-70
2022/04/06 04:46:17;;;;;;;1.27;0.30;;;24.10;36.30;;;;;;5092323;28;20532;-72
2022/04/06 04:48:43;;;;;;;3.30;0.60;;;24.00;36.20;;;;;;5090744;28;20036;-72
2022/04/06 04:51:08;;;;;;;3.47;0.50;;;24.10;36.30;;;;;;5090896;28;20055;-71
2022/04/06 04:53:37;;;;;;;2.08;0.30;;;24.00;36.30;;;;;;5091050;28;20044;-71
2022/04/06 04:56:03;;;;;;;4.18;0.50;;;24.00;36.30;;;;;;5091344;28;20105;-71
2022/04/06 04:58:29;;;;;;;2.67;0.30;;;24.00;36.30;;;;;;5090799;28;20457;-72
2022/04/06 05:00:54;;;;;;;3.58;0.25;;;24.00;36.30;;;;;;5091264;28;20130;-71
2022/04/06 05:03:21;;;;;;;2.30;0.30;;;24.00;36.20;;;;;;5092056;28;20490;-71
2022/04/06 05:05:50;;;;;;;2.50;0.50;;;24.00;36.20;;;;;;5092153;28;20044;-71
2022/04/06 05:08:16;;;;;;;2.75;0.40;;;24.10;36.10;;;;;;5091172;28;20048;-72
2022/04/06 05:10:41;;;;;;;3.35;0.57;;;24.10;36.00;;;;;;5092025;28;20032;-73
2022/04/06 05:13:07;;;;;;;2.50;0.32;;;24.10;36.60;;;;;;5090926;28;20051;-71
2022/04/06 05:15:33;;;;;;;2.92;0.40;;;24.20;35.80;;;;;;5125223;27;20039;-72
2022/04/06 05:17:58;;;;;;;2.72;0.22;;;24.30;35.70;;;;;;5090467;28;20047;-71
2022/04/06 05:20:24;;;;;;;3.05;0.47;;;24.30;35.70;;;;;;5092145;28;20439;-71
2022/04/06 05:22:50;;;;;;;1.98;0.32;;;24.30;35.50;;;;;;5090596;28;20085;-71
2022/04/06 05:25:15;;;;;;;2.42;0.45;;;24.40;35.40;;;;;;5125192;28;20040;-71
2022/04/06 05:27:47;;;;;;;2.85;0.50;;;24.40;35.30;;;;;;5090708;28;20507;-67
2022/04/06 05:30:14;;;;;;;1.27;0.22;;;24.50;35.30;;;;;;5090431;28;20475;-70
2022/04/06 05:32:42;;;;;;;1.58;0.40;;;24.50;35.20;;;;;;5090559;28;20047;-72
2022/04/06 05:35:09;;;;;;;1.58;0.40;;;24.50;35.20;;;;;;5091836;28;20040;-70
2022/04/06 05:37:36;;;;;;;3.85;0.40;;;24.50;35.20;;;;;;5124821;28;20044;-72
2022/04/06 05:40:03;;;;;;;3.35;0.55;;;24.50;35.20;;;;;;5090561;28;20072;-71
2022/04/06 05:42:28;;;;;;;1.63;0.35;;;24.50;35.20;;;;;;5073732;28;20399;-73
2022/04/06 05:44:54;;;;;;;2.88;0.60;;;24.50;35.20;;;;;;5090258;28;20036;-71
2022/04/06 05:47:20;;;;;;;3.00;0.38;;;24.40;35.20;;;;;;5089878;28;20040;-67
2022/04/06 05:49:45;;;;;;;2.83;0.60;;;24.40;35.20;;;;;;5090184;28;20051;-72
2022/04/06 05:52:11;;;;;;;2.20;0.38;;;24.30;35.20;;;;;;5090738;28;20131;-71
2022/04/06 05:54:37;;;;;;;1.65;0.30;;;24.30;35.30;;;;;;5087462;28;20351;-72
2022/04/06 05:57:03;;;;;;;4.60;0.50;;;24.30;35.30;;;;;;5086569;28;20032;-69
2022/04/06 05:59:29;;;;;;;2.67;0.50;;;24.30;35.50;;;;;;5090018;28;20399;-69
2022/04/06 06:01:55;;;;;;;5.05;0.52;;;24.10;35.80;;;;;;5097029;28;20035;-76
2022/04/06 06:04:20;;;;;;;3.30;0.43;;;23.90;36.10;;;;;;5091191;28;20817;-69
2022/04/06 06:06:46;;;;;;;3.00;0.98;;;23.70;36.40;;;;;;5090475;28;20032;-70
2022/04/06 06:09:12;;;;;;;3.17;0.65;;;23.70;36.80;;;;;;5091238;28;20077;-70
2022/04/06 06:11:37;;;;;;;2.28;0.63;;;23.50;36.90;;;;;;5075992;28;20036;-72
2022/04/06 06:14:03;;;;;;;2.40;0.30;;;23.50;37.20;;;;;;5068516;28;20076;-72
2022/04/06 06:16:29;;;;;;;3.92;0.52;;;23.40;37.40;;;;;;5076329;28;20040;-72
2022/04/06 06:18:56;;;;;;;2.28;0.30;;;23.30;37.50;;;;;;5111706;27;20055;-72
2022/04/06 06:21:22;;;;;;;2.08;0.40;;;23.30;37.70;;;;;;5108369;27;20817;-72
2022/04/06 06:23:49;;;;;;;1.52;0.30;;;23.20;37.80;;;;;;5066774;28;20877;-72
2022/04/06 06:26:15;;;;;;;1.45;0.43;;;23.30;37.90;;;;;;5106537;27;20047;-71
2022/04/06 06:28:41;;;;;;;4.05;0.52;;;23.30;38.10;;;;;;5110526;27;20039;-72
2022/04/06 06:31:06;;;;;;;2.40;0.50;;;23.30;38.50;;;;;;5078242;28;20065;-71
2022/04/06 06:33:32;;;;;;;3.78;0.65;;;23.30;38.40;;;;;;5107923;27;20043;-72
2022/04/06 06:35:57;;;;;;;6.60;0.70;;;23.20;38.10;;;;;;5079427;28;20036;-70
2022/04/06 06:38:23;;;;;;;6.15;0.40;;;23.20;38.10;;;;;;5083736;28;20426;-70
2022/04/06 06:40:49;;;;;;;5.70;0.70;;;23.20;38.20;;;;;;5075440;28;20032;-70
2022/04/06 06:43:17;;;;;;;4.22;0.73;;;23.20;38.50;;;;;;5074249;28;20127;-70
2022/04/06 06:45:46;;;;;;;6.03;0.30;;;23.20;38.70;;;;;;5080860;28;20048;-72
2022/04/06 06:48:12;;;;;;;1.65;0.30;;;23.20;38.80;;;;;;5108269;27;20044;-70
2022/04/06 06:50:37;;;;;;;2.67;0.70;;;23.20;39.00;;;;;;5074957;28;20047;-71
2022/04/06 06:53:03;;;;;;;6.00;0.50;;;23.20;39.10;;;;;;5084778;28;20047;-70
2022/04/06 06:55:29;;;;;;;2.78;0.50;;;23.10;39.20;;;;;;5073710;28;20045;-70
2022/04/06 06:57:54;;;;;;;3.55;0.30;;;23.10;39.50;;;;;;5075345;28;20492;-70
2022/04/06 07:00:20;;;;;;;2.47;0.32;;;23.00;39.60;;;;;;5110337;27;20510;-70
2022/04/06 07:02:46;;;;;;;1.85;0.35;;;22.90;39.90;;;;;;5106978;27;20040;-73
2022/04/06 07:05:12;;;;;;;2.60;0.30;;;22.80;40.10;;;;;;5072303;28;20044;-72
2022/04/06 07:07:48;;;;;;;3.55;0.35;;;22.70;40.00;;;;;;5071864;28;20044;-71
2022/04/06 07:10:13;;;;;;;1.63;0.40;;;22.70;40.30;;;;;;5067767;28;20048;-73
2022/04/06 07:12:39;;;;;;;2.75;0.30;;;22.60;40.40;;;;;;5080168;28;20047;-71
2022/04/06 07:15:05;;;;;;;3.80;0.40;;;22.50;40.60;;;;;;5107553;27;20080;-76
2022/04/06 07:17:31;;;;;;;3.72;0.30;;;22.40;41.10;;;;;;5105940;27;20044;-73
2022/04/06 07:19:56;;;;;;;4.75;0.30;;;22.30;41.60;;;;;;5103620;27;20492;-72
2022/04/06 07:22:22;;;;;;;2.97;0.32;;;22.20;42.70;;;;;;5103372;27;20098;-69
2022/04/06 07:24:47;;;;;;;5.50;0.40;;;22.10;42.30;;;;;;5070112;28;20036;-74
2022/04/06 07:27:13;;;;;;;4.68;0.70;;;22.10;42.60;;;;;;5103492;27;20051;-72
2022/04/06 07:29:39;;;;;;;3.28;0.55;;;22.00;42.90;;;;;;5101301;27;20106;-73
2022/04/06 07:32:05;;;;;;;7.10;0.38;;;21.80;43.00;;;;;;5071241;28;20083;-73
2022/04/06 07:34:30;;;;;;;4.38;0.47;;;21.70;43.10;;;;;;5070291;28;20048;-74
2022/04/06 07:36:56;;;;;;;4.28;0.30;;;21.60;43.20;;;;;;5104770;27;20535;-74
2022/04/06 07:39:22;;;;;;;4.30;0.50;;;21.50;43.30;;;;;;5103195;27;20098;-74
2022/04/06 07:41:47;;;;;;;4.20;0.30;;;21.40;43.50;;;;;;5070918;28;20036;-75
2022/04/06 07:44:13;;;;;;;4.40;0.50;;;21.30;43.90;;;;;;5105589;27;20032;-73
2022/04/06 07:46:39;;;;;;;5.63;0.40;;;21.20;44.40;;;;;;5103710;27;20090;-73
2022/04/06 07:49:06;;;;;;;5.28;0.30;;;21.10;44.60;;;;;;5104219;27;20068;-76
2022/04/06 07:51:32;;;;;;;4.68;0.43;;;21.00;44.70;;;;;;5077878;28;20035;-76
2022/04/06 07:54:00;;;;;;;4.07;0.85;;;20.90;45.10;;;;;;5106224;27;20051;-75
2022/04/06 07:56:26;;;;;;;4.25;0.35;;;20.80;45.30;;;;;;5070760;28;20656;-76
2022/04/06 07:58:51;;;;;;;1.65;0.20;;;20.80;45.60;;;;;;5105096;27;20042;-74
2022/04/06 08:01:17;;;;;;;2.92;0.22;;;20.70;46.60;;;;;;5074421;28;20348;-69
2022/04/06 08:03:46;;;;;;;5.07;0.50;;;20.70;46.00;;;;;;5073486;28;20036;-70
2022/04/06 08:06:12;;;;;;;6.15;0.40;;;20.60;46.00;;;;;;5070971;28;20044;-70
2022/04/06 08:08:38;;;;;;;2.45;0.28;;;20.50;46.10;;;;;;5073148;28;20040;-69
2022/04/06 08:11:05;;;;;;;3.33;0.43;;;20.50;46.20;;;;;;5074353;28;20114;-70
2022/04/06 08:13:32;;;;;;;5.53;0.32;;;20.50;46.50;;;;;;5071388;28;20032;-70
2022/04/06 08:15:59;;;;;;;6.72;0.68;;;20.50;46.80;;;;;;5102562;27;20051;-71
2022/04/06 08:18:25;;;;;;;2.22;0.32;;;20.40;47.00;;;;;;5075311;28;20056;-71
2022/04/06 08:20:51;;;;;;;5.68;0.80;;;20.40;47.10;;;;;;5075184;28;20048;-70
2022/04/06 08:23:19;;;;;;;6.60;1.15;;;20.40;47.10;;;;;;5073295;28;20051;-73
2022/04/06 08:25:44;;;;;;;2.38;0.30;;;20.40;47.10;;;;;;5106357;27;20298;-73
2022/04/06 08:28:10;;;;;;;6.65;0.55;;;20.30;47.00;;;;;;5108526;27;20127;-73
2022/04/06 08:30:42;;;;;;;2.75;0.40;;;20.30;46.90;;;;;;5072363;28;20048;-75
2022/04/06 08:33:08;;;;;;;3.65;0.47;;;20.30;46.90;;;;;;5099377;27;20051;-72
2022/04/06 08:35:35;;;;;;;2.40;0.73;;;20.30;46.80;;;;;;5070647;28;20052;-69
2022/04/06 08:38:04;;;;;;;7.10;0.70;;;20.20;46.70;;;;;;5070208;28;20036;-70
2022/04/06 08:40:32;;;;;;;5.95;0.73;;;20.20;46.70;;;;;;5105148;27;20070;-69
2022/04/06 08:42:59;;;;;;;7.72;0.80;;;20.20;46.90;;;;;;5103526;27;20036;-68
2022/04/06 08:45:24;;;;;;;3.05;0.68;;;20.20;47.10;;;;;;5107041;27;20051;-69
2022/04/06 08:47:51;;;;;;;5.75;0.90;;;20.20;47.20;;;;;;5072767;28;20028;-70
2022/04/06 08:50:18;;;;;;;5.93;0.88;;;20.10;48.00;;;;;;5075716;28;20050;-69
2022/04/06 08:52:45;;;;;;;3.28;0.40;;;20.10;47.30;;;;;;5072536;28;20043;-70
2022/04/06 08:55:12;;;;;;;4.63;0.77;;;20.10;47.30;;;;;;5106066;27;20404;-70
2022/04/06 08:57:40;;;;;;;4.20;0.80;;;20.10;47.40;;;;;;5070269;28;20048;-70
2022/04/06 09:00:07;;;;;;;5.38;0.60;;;20.10;47.50;;;;;;5074260;28;20454;-68
2022/04/06 09:02:33;;;;;;;4.60;0.60;;;20.00;47.40;;;;;;5072276;28;20040;-71
2022/04/06 09:05:02;;;;;;;5.63;0.90;;;20.00;47.60;;;;;;5103345;27;20439;-72
2022/04/06 09:07:28;;;;;;;4.78;0.32;;;20.00;47.70;;;;;;5104870;27;20051;-71
2022/04/06 09:09:55;;;;;;;5.78;0.90;;;20.00;48.00;;;;;;5079348;28;20047;-71
2022/04/06 09:12:24;;;;;;;5.47;0.65;;;20.00;48.10;;;;;;5068072;28;20040;-71
2022/04/06 09:15:10;;;;;;;2.65;0.40;;;20.00;48.50;;;;;;5070849;28;20548;-72
2022/04/06 09:17:53;;;;;;;3.67;0.57;;;20.00;49.10;;;;;;5098073;27;20056;-72
2022/04/06 09:20:24;;;;;;;3.22;0.40;;;20.00;49.10;;;;;;5071902;28;20039;-75
2022/04/06 09:22:50;;;;;;;4.53;0.50;;;19.90;48.70;;;;;;5074039;28;20032;-73
2022/04/06 09:25:20;;;;;;;3.67;0.30;;;19.90;48.40;;;;;;5102166;28;20896;-69
2022/04/06 09:27:46;;;;;;;3.28;0.22;;;19.90;48.30;;;;;;5073451;28;20123;-70
2022/04/06 09:30:12;;;;;;;3.95;0.68;;;20.00;48.30;;;;;;5071423;28;20036;-74
2022/04/06 09:32:41;;;;;;;5.22;0.93;;;20.00;48.20;;;;;;5105881;28;20113;-73
2022/04/06 09:35:28;;;;;;;2.40;0.50;;;20.00;48.30;;;;;;5074462;28;20495;-73
2022/04/06 09:38:12;;;;;;;3.28;0.35;;;19.90;48.40;;;;;;5108018;27;20067;-75
2022/04/06 09:40:39;;;;;;;1.83;0.38;;;19.90;48.30;;;;;;5081229;28;20488;-72
2022/04/06 09:43:06;;;;;;;3.58;0.43;;;19.90;48.40;;;;;;5107717;27;20043;-73
2022/04/06 09:48:17;;;;;;;2.35;0.50;;;20.00;48.40;;;;;;5110898;27;20044;-73
2022/04/06 09:50:58;;;;;;;3.00;0.57;;;19.90;48.30;;;;;;5111567;27;20534;-70
2022/04/06 09:53:27;;;;;;;5.60;0.40;;;19.90;48.60;;;;;;5071466;28;20046;-72
2022/04/06 09:55:55;;;;;;;3.70;0.60;;;19.90;48.40;;;;;;5071092;28;20040;-72
2022/04/06 09:58:24;;;;;;;2.10;0.85;;;19.90;48.50;;;;;;5107179;27;20415;-73
2022/04/06 10:00:52;;;;;;;3.28;0.40;;;19.90;48.50;;;;;;5071194;28;20130;-71
2022/04/06 10:03:19;;;;;;;2.17;0.50;;;19.90;48.40;;;;;;5105708;27;20076;-69
2022/04/06 10:05:49;;;;;;;2.85;0.30;;;19.90;48.40;;;;;;5074739;28;20056;-72
2022/04/06 10:08:17;;;;;;;3.90;0.50;;;19.90;48.50;;;;;;5073565;28;20048;-70
2022/04/06 10:10:45;;;;;;;3.67;0.60;;;19.90;48.40;;;;;;5104559;27;20048;-72
2022/04/06 10:13:10;;;;;;;3.33;1.30;;;19.90;48.40;;;;;;5072084;28;20062;-72
2022/04/06 10:15:37;;;;;;;3.75;0.52;;;19.80;48.40;;;;;;5074252;28;20036;-71
2022/04/06 10:18:04;;;;;;;3.47;1.42;;;19.80;48.40;;;;;;5070815;28;20040;-73
2022/04/06 10:20:59;;;;;;;3.45;0.60;;;19.80;48.50;;;;;;5070972;28;20040;-73
2022/04/06 10:26:36;;;;;;;3.22;0.45;;;19.80;48.70;;;;;;5108122;27;20420;-73
2022/04/06 10:29:04;;;;;;;2.20;0.52;;;19.80;48.60;;;;;;5085590;28;20044;-72
2022/04/06 10:31:30;;;;;;;1.42;0.40;;;19.80;48.60;;;;;;5108744;27;20117;-73
2022/04/06 10:34:24;;;;;;;4.75;1.02;;;19.80;48.60;;;;;;5096961;28;20109;-76
2022/04/06 10:42:34;;;;;;;4.90;0.47;;;19.80;49.40;;;;;;5116232;27;21124;-76
2022/04/06 10:45:03;;;;;;;6.18;0.50;;;19.80;49.10;;;;;;5112479;28;20039;-75
2022/04/06 10:47:29;;;;;;;8.50;0.70;;;19.80;49.10;;;;;;5105017;28;20036;-73
2022/04/06 10:52:51;;;;;;;5.00;0.55;;;19.80;49.10;;;;;;5124742;27;20398;-73
2022/04/06 10:55:23;;;;;;;3.63;0.50;;;19.80;49.00;;;;;;5123470;28;20108;-74
2022/04/06 11:00:41;;;;;;;3.13;0.40;;;19.70;49.00;;;;;;5126146;27;20406;-75
2022/04/06 11:03:18;;;;;;;3.80;0.30;;;19.70;48.80;;;;;;5123508;28;20103;-75
2022/04/06 11:05:51;;;;;;;5.32;0.75;;;19.70;48.90;;;;;;5123536;28;20035;-73
2022/04/06 11:14:33;;;;;;;3.03;0.30;;;19.70;48.60;;;;;;5120966;27;1166056;-75
2022/04/06 11:16:59;;;;;;;4.55;0.70;;;19.70;49.30;;;;;;5131846;27;20038;-74
2022/04/06 11:19:26;;;;;;;2.05;0.40;;;19.70;49.20;;;;;;5147750;27;20062;-70
2022/04/06 11:21:53;;;;;;;3.15;0.55;;;19.70;49.10;;;;;;5132701;27;20150;-70
2022/04/06 11:24:22;;;;;;;2.60;0.77;;;19.70;49.10;;;;;;5138233;27;20038;-73
2022/04/06 11:26:49;;;;;;;2.35;0.40;;;19.70;49.10;;;;;;5137856;27;20382;-73
2022/04/06 11:29:14;;;;;;;4.07;0.50;;;19.70;49.10;;;;;;5131047;27;20708;-74
2022/04/06 11:31:59;;;;;;;3.30;0.20;;;19.70;49.00;;;;;;5129350;27;20117;-75
2022/04/06 11:34:40;;;;;;;2.90;0.30;;;19.70;48.90;;;;;;5136799;27;20126;-76
2022/04/06 11:37:09;;;;;;;2.22;0.40;;;19.70;48.80;;;;;;5140236;27;20045;-75
2022/04/06 11:39:35;;;;;;;1.63;0.30;;;19.70;48.60;;;;;;5133701;27;20062;-75
2022/04/06 11:42:04;;;;;;;1.42;0.30;;;19.70;48.50;;;;;;5127821;27;20528;-73
2022/04/06 11:44:31;;;;;;;4.38;0.52;;;19.70;48.50;;;;;;5135202;27;20023;-75
2022/04/06 11:46:57;;;;;;;3.35;0.30;;;19.80;48.50;;;;;;5142604;27;20026;-72
2022/04/06 11:49:24;;;;;;;1.60;0.30;;;19.70;48.40;;;;;;5144706;27;20062;-75
2022/04/06 11:51:52;;;;;;;1.25;0.20;;;19.70;48.40;;;;;;5138763;27;20064;-75
2022/04/06 11:54:19;;;;;;;1.20;0.28;;;19.70;48.30;;;;;;5129753;27;20034;-75
2022/04/06 11:56:49;;;;;;;2.25;0.40;;;19.70;48.30;;;;;;5149509;27;20038;-74
2022/04/06 11:59:16;;;;;;;;;;;19.70;48.30;;;;;;5144036;27;20034;-75
2022/04/06 12:01:43;;;;;;;1.95;0.15;;;19.70;48.40;;;;;;5129215;27;19915;-72
2022/04/06 12:04:22;;;;;;;2.05;0.20;;;19.70;48.10;;;;;;5148935;27;20520;-74
2022/04/06 12:06:49;;;;;;;1.67;0.20;;;19.80;48.30;;;;;;5149354;27;20027;-75
2022/04/06 12:09:15;;;;;;;1.42;0.20;;;19.80;48.10;;;;;;5149894;27;20034;-74
2022/04/06 12:11:41;;;;;;;1.80;0.20;;;19.80;48.10;;;;;;5130012;27;20049;-75
2022/04/06 12:14:10;;;;;;;1.27;0.20;;;19.80;48.80;;;;;;5130260;27;20038;-74
2022/04/06 12:16:38;;;;;;;1.27;0.35;;;19.80;48.10;;;;;;5129810;27;20046;-73
2022/04/06 12:19:08;;;;;;;2.13;0.30;;;19.80;48.10;;;;;;5129429;27;20035;-74
2022/04/06 12:21:41;;;;;;;2.35;0.20;;;19.80;48.10;;;;;;5128833;27;20035;-73
2022/04/06 12:24:07;;;;;;;3.17;0.20;;;19.80;48.20;;;;;;5143413;27;20430;-73
2022/04/06 12:29:21;;;;;;;1.85;0.28;;;19.80;48.20;;;;;;5107712;27;20111;-74
2022/04/06 12:31:47;;;;;;;2.13;0.25;;;19.80;48.30;;;;;;5081420;28;20028;-75
2022/04/06 12:34:34;;;;;;;1.10;0.20;;;19.70;48.60;;;;;;5069065;28;20123;-71
2022/04/06 12:37:29;;;;;;;1.95;0.30;;;19.70;48.80;;;;;;5085186;28;20059;-74
2022/04/06 12:39:52;;;;;;;3.15;0.30;;;19.70;48.80;;;;;;5067812;28;20040;-74
2022/04/06 12:42:18;;;;;;;1.83;0.20;;;19.70;48.90;;;;;;5065264;28;20068;-73
2022/04/06 12:45:02;;;;;;;1.33;0.32;;;19.60;48.90;;;;;;5069966;28;20031;-74
2022/04/06 12:47:30;;;;;;;2.95;0.30;;;19.60;49.00;;;;;;5073379;28;20067;-74
2022/04/06 12:53:08;;;;;;;1.95;0.50;;;19.60;49.00;;;;;;5119318;27;20386;-74
2022/04/06 12:55:37;;;;;;;1.83;0.55;;;19.50;48.80;;;;;;5113949;28;20062;-73
2022/04/06 12:58:20;;;;;;;0.98;0.20;;;19.50;48.80;;;;;;5096732;28;20557;-74
2022/04/06 13:00:57;;;;;;;1.33;0.20;;;19.50;48.90;;;;;;5103095;28;20047;-73
2022/04/06 13:03:24;;;;;;;3.28;0.30;;;19.40;48.90;;;;;;5094759;28;20046;-73
2022/04/06 13:05:49;;;;;;;2.72;0.30;;;19.40;48.90;;;;;;5097122;28;20135;-74
2022/04/06 13:08:17;;;;;;;2.25;0.45;;;19.40;48.90;;;;;;5096488;28;20524;-73
2022/04/06 13:10:43;;;;;;;2.78;0.47;;;19.30;48.90;;;;;;5097371;28;20051;-74
2022/04/06 13:13:09;;;;;;;2.58;0.40;;;19.30;48.90;;;;;;5115152;27;20513;-73
2022/04/06 13:15:36;;;;;;;3.72;0.20;;;19.30;48.90;;;;;;5097303;28;20047;-76
2022/04/06 13:18:02;;;;;;;4.10;0.30;;;19.20;48.90;;;;;;5096411;28;20123;-74
2022/04/06 13:20:27;;;;;;;1.45;0.30;;;19.20;48.90;;;;;;5109339;28;20127;-73